PWSweather.com
Personal Weather Stations
Station Observations
VPOKROGLO
Kal Nad Kanalom, PrimorskaSI

Kal Nad KanalomPrimorskaSI

Lat: 46.072, Lon: 13.734

Elevation: 2526

Station Type: WS-2355

https://okroglovreme.com

Latest ConditionsUpdated 5:00:00 AM GMT+01:01 Wednesday, Aug 21, 2019
Currently Today's Max Today's Min Today's Average
Temperature 68.7°F20.4°C 71.6°F22.0°C 68.7°F20.4°C 69.7°F20.9°C
Dew Point 59.3°F15.2°C 59.3°F15.2°C 56.3°F13.5°C 58.3°F14.6°C
Winds 0.7 mph N1.1 kmh N 1.7 mph -2.7 kmh - - 0.7 mph 1.1 kmh
Wind Gusts 2.9 mph4.7 kmh 3.8 mph6.1 kmh - -
Humidity 72% 72% 60% 67%
Pressure 30.17 in1021.7 mb 30.18 in1022.0 mb 30.16 in1021.3 mb -
Hour Temp Dew Point Humidity Winds Wind Gusts Pressure Precip Precip Rate Daily Precip Total
05:00 AM 68.7°F20.4°C 59.3°F15.2°C 72% 0.7 mph N1.1 kmh N 2.9 mph4.7 kmh 30.17 in1021.7 mb 0.00 in0.0 mm 0.00 in0.0 mm 0.00 in0.0 mm
04:45 AM 68.9°F20.5°C 59.1°F15.1°C 71% 0.5 mph NNE0.8 kmh NNE 1.8 mph2.9 kmh 30.17 in1021.7 mb 0.00 in0.0 mm 0.00 in0.0 mm 0.00 in0.0 mm
04:30 AM 68.9°F20.5°C 59.1°F15.1°C 71% 1.2 mph NNE1.9 kmh NNE 2.5 mph4.0 kmh 30.16 in1021.3 mb 0.00 in0.0 mm 0.00 in0.0 mm 0.00 in0.0 mm
04:15 AM 68.9°F20.5°C 59.1°F15.1°C 71% 0.7 mph NNE1.1 kmh NNE 2.5 mph4.0 kmh 30.16 in1021.3 mb 0.00 in0.0 mm 0.00 in0.0 mm 0.00 in0.0 mm
04:00 AM 68.9°F20.5°C 58.7°F14.8°C 70% 0.4 mph NNE0.6 kmh NNE 2.0 mph3.2 kmh 30.16 in1021.3 mb 0.00 in0.0 mm 0.00 in0.0 mm 0.00 in0.0 mm
03:45 AM 69.1°F20.6°C 58.9°F14.9°C 70% 0.5 mph NNE0.8 kmh NNE 1.8 mph2.9 kmh 30.16 in1021.3 mb 0.00 in0.0 mm 0.00 in0.0 mm 0.00 in0.0 mm
03:30 AM 69.3°F20.7°C 58.7°F14.8°C 69% 0.2 mph NNE0.3 kmh NNE 2.0 mph3.2 kmh 30.16 in1021.3 mb 0.00 in0.0 mm 0.00 in0.0 mm 0.00 in0.0 mm
03:15 AM 68.9°F20.5°C 58.7°F14.8°C 70% 1.5 mph NNE2.4 kmh NNE 2.7 mph4.3 kmh 30.16 in1021.3 mb 0.00 in0.0 mm 0.00 in0.0 mm 0.00 in0.0 mm
03:00 AM 69.1°F20.6°C 59.3°F15.2°C 71% Calm Calm -- 30.16 in1021.3 mb 0.00 in0.0 mm 0.00 in0.0 mm 0.00 in0.0 mm
02:45 AM 68.9°F20.5°C 58.7°F14.8°C 70% 0.3 mph NE0.5 kmh NE 1.6 mph2.6 kmh 30.16 in1021.3 mb 0.00 in0.0 mm 0.00 in0.0 mm 0.00 in0.0 mm
02:30 AM 68.7°F20.4°C 58.1°F14.5°C 69% 0.1 mph NE0.2 kmh NE 1.3 mph2.1 kmh 30.17 in1021.7 mb 0.00 in0.0 mm 0.00 in0.0 mm 0.00 in0.0 mm
02:15 AM 69.1°F20.6°C 58.1°F14.5°C 68% 0.1 mph NE0.2 kmh NE 1.3 mph2.1 kmh 30.16 in1021.3 mb 0.00 in0.0 mm 0.00 in0.0 mm 0.00 in0.0 mm
02:00 AM 69.4°F20.8°C 57.6°F14.2°C 66% 0.8 mph NE1.3 kmh NE 2.0 mph3.2 kmh 30.16 in1021.3 mb 0.00 in0.0 mm 0.00 in0.0 mm 0.00 in0.0 mm
01:45 AM 70.0°F21.1°C 58.1°F14.5°C 66% 0.2 mph NE0.3 kmh NE 2.0 mph3.2 kmh 30.16 in1021.3 mb 0.00 in0.0 mm 0.00 in0.0 mm 0.00 in0.0 mm
01:30 AM 70.7°F21.5°C 58.8°F14.9°C 66% 0.9 mph NE1.4 kmh NE 2.9 mph4.7 kmh 30.16 in1021.3 mb 0.00 in0.0 mm 0.00 in0.0 mm 0.00 in0.0 mm
01:15 AM 70.9°F21.6°C 59.0°F15.0°C 66% 0.5 mph NE0.8 kmh NE 2.5 mph4.0 kmh 30.16 in1021.3 mb 0.00 in0.0 mm 0.00 in0.0 mm 0.00 in0.0 mm
01:00 AM 71.2°F21.8°C 57.5°F14.2°C 62% 1.5 mph NE2.4 kmh NE 2.9 mph4.7 kmh 30.16 in1021.3 mb 0.00 in0.0 mm 0.00 in0.0 mm 0.00 in0.0 mm
12:45 AM 71.6°F22.0°C 57.0°F13.9°C 60% 0.9 mph NE1.4 kmh NE 2.7 mph4.3 kmh 30.16 in1021.3 mb 0.00 in0.0 mm 0.00 in0.0 mm 0.00 in0.0 mm
12:30 AM 70.9°F21.6°C 56.3°F13.5°C 60% 0.3 mph NE0.5 kmh NE 1.6 mph2.6 kmh 30.16 in1021.3 mb 0.00 in0.0 mm 0.00 in0.0 mm 0.00 in0.0 mm
12:15 AM 71.4°F21.9°C 57.3°F14.1°C 61% 1.7 mph NE2.7 kmh NE 3.8 mph6.1 kmh 30.17 in1021.7 mb 0.00 in0.0 mm 0.00 in0.0 mm 0.00 in0.0 mm
12:00 AM 70.5°F21.4°C 56.9°F13.8°C 62% 1.0 mph NE1.6 kmh NE 2.7 mph4.3 kmh 30.18 in1022.0 mb 0.00 in0.0 mm 0.00 in0.0 mm 0.00 in0.0 mm